sensor_id;sensor_type;location;lat;lon;timestamp;pressure;altitude;pressure_sealevel;temperature;humidity
35331;BME280;21441;52.190;20.910;2023-04-26T00:00:53;99346.47;;;7.67;100.00
35331;BME280;21441;52.190;20.910;2023-04-26T00:03:21;99348.38;;;7.81;100.00
35331;BME280;21441;52.190;20.910;2023-04-26T00:05:49;99354.88;;;7.78;100.00
35331;BME280;21441;52.190;20.910;2023-04-26T00:08:17;99351.19;;;7.79;100.00
35331;BME280;21441;52.190;20.910;2023-04-26T00:10:44;99353.28;;;7.92;100.00
35331;BME280;21441;52.190;20.910;2023-04-26T00:13:11;99362.78;;;7.87;100.00
35331;BME280;21441;52.190;20.910;2023-04-26T00:15:38;99367.97;;;7.80;100.00
35331;BME280;21441;52.190;20.910;2023-04-26T00:18:05;99367.09;;;7.88;100.00
35331;BME280;21441;52.190;20.910;2023-04-26T00:20:33;99374.63;;;7.76;100.00
35331;BME280;21441;52.190;20.910;2023-04-26T00:23:01;99371.63;;;7.79;100.00
35331;BME280;21441;52.190;20.910;2023-04-26T00:25:28;99366.03;;;7.65;100.00
35331;BME280;21441;52.190;20.910;2023-04-26T00:27:55;99384.84;;;7.87;100.00
35331;BME280;21441;52.190;20.910;2023-04-26T00:30:22;99385.25;;;7.76;100.00
35331;BME280;21441;52.190;20.910;2023-04-26T00:32:49;99381.03;;;7.50;100.00
35331;BME280;21441;52.190;20.910;2023-04-26T00:35:16;99393.53;;;7.73;100.00
35331;BME280;21441;52.190;20.910;2023-04-26T00:37:45;99394.47;;;7.88;100.00
35331;BME280;21441;52.190;20.910;2023-04-26T00:40:13;99393.47;;;7.89;100.00
35331;BME280;21441;52.190;20.910;2023-04-26T00:42:41;99396.84;;;7.75;100.00
35331;BME280;21441;52.190;20.910;2023-04-26T00:45:08;99397.25;;;7.63;100.00
35331;BME280;21441;52.190;20.910;2023-04-26T00:47:36;99395.25;;;7.97;100.00
35331;BME280;21441;52.190;20.910;2023-04-26T00:50:03;99389.50;;;7.85;100.00
35331;BME280;21441;52.190;20.910;2023-04-26T00:52:33;99395.50;;;7.79;100.00
35331;BME280;21441;52.190;20.910;2023-04-26T00:55:02;99403.19;;;7.74;100.00
35331;BME280;21441;52.190;20.910;2023-04-26T00:57:29;99403.59;;;7.54;100.00
35331;BME280;21441;52.190;20.910;2023-04-26T00:59:56;99399.44;;;7.60;100.00
35331;BME280;21441;52.190;20.910;2023-04-26T01:02:24;99409.03;;;7.61;100.00
35331;BME280;21441;52.190;20.910;2023-04-26T01:04:51;99395.94;;;7.59;100.00
35331;BME280;21441;52.190;20.910;2023-04-26T01:07:18;99402.66;;;7.78;100.00
35331;BME280;21441;52.190;20.910;2023-04-26T01:09:46;99407.22;;;7.61;100.00
35331;BME280;21441;52.190;20.910;2023-04-26T01:12:16;99401.72;;;7.63;100.00
35331;BME280;21441;52.190;20.910;2023-04-26T01:14:44;99407.81;;;7.80;100.00
35331;BME280;21441;52.190;20.910;2023-04-26T01:17:11;99406.25;;;7.54;100.00
35331;BME280;21441;52.190;20.910;2023-04-26T01:19:46;99414.50;;;7.59;100.00
35331;BME280;21441;52.190;20.910;2023-04-26T01:22:13;99415.81;;;7.63;100.00
35331;BME280;21441;52.190;20.910;2023-04-26T01:24:44;99416.72;;;7.48;100.00
35331;BME280;21441;52.190;20.910;2023-04-26T01:27:12;99410.41;;;7.49;100.00
35331;BME280;21441;52.190;20.910;2023-04-26T01:29:39;99411.63;;;7.38;100.00
35331;BME280;21441;52.190;20.910;2023-04-26T01:32:07;99401.16;;;7.36;100.00
35331;BME280;21441;52.190;20.910;2023-04-26T01:34:34;99412.22;;;7.48;100.00
35331;BME280;21441;52.190;20.910;2023-04-26T01:37:02;99411.19;;;7.57;100.00
35331;BME280;21441;52.190;20.910;2023-04-26T01:39:29;99422.47;;;7.59;100.00
35331;BME280;21441;52.190;20.910;2023-04-26T01:41:58;99425.84;;;7.53;100.00
35331;BME280;21441;52.190;20.910;2023-04-26T01:44:25;99420.53;;;7.53;100.00
35331;BME280;21441;52.190;20.910;2023-04-26T01:46:52;99417.66;;;7.63;100.00
35331;BME280;21441;52.190;20.910;2023-04-26T01:49:19;99413.53;;;7.60;100.00
35331;BME280;21441;52.190;20.910;2023-04-26T01:51:47;99413.84;;;7.65;100.00
35331;BME280;21441;52.190;20.910;2023-04-26T01:54:14;99420.16;;;7.64;100.00
35331;BME280;21441;52.190;20.910;2023-04-26T01:56:41;99415.03;;;7.55;100.00
35331;BME280;21441;52.190;20.910;2023-04-26T01:59:09;99413.38;;;7.62;100.00
35331;BME280;21441;52.190;20.910;2023-04-26T02:01:36;99413.22;;;7.55;100.00
35331;BME280;21441;52.190;20.910;2023-04-26T02:04:03;99420.19;;;7.48;100.00
35331;BME280;21441;52.190;20.910;2023-04-26T02:06:31;99418.19;;;7.50;100.00
35331;BME280;21441;52.190;20.910;2023-04-26T02:08:58;99418.06;;;7.35;100.00
35331;BME280;21441;52.190;20.910;2023-04-26T02:11:25;99424.41;;;7.34;100.00
35331;BME280;21441;52.190;20.910;2023-04-26T02:13:52;99426.41;;;7.24;100.00
35331;BME280;21441;52.190;20.910;2023-04-26T02:16:21;99424.25;;;7.28;100.00
35331;BME280;21441;52.190;20.910;2023-04-26T02:18:48;99433.03;;;7.20;100.00
35331;BME280;21441;52.190;20.910;2023-04-26T02:21:16;99421.75;;;7.26;100.00
35331;BME280;21441;52.190;20.910;2023-04-26T02:23:43;99429.03;;;7.32;100.00
35331;BME280;21441;52.190;20.910;2023-04-26T02:26:11;99426.28;;;7.09;100.00
35331;BME280;21441;52.190;20.910;2023-04-26T02:28:38;99416.50;;;7.01;100.00
35331;BME280;21441;52.190;20.910;2023-04-26T02:31:07;99430.75;;;7.09;100.00
35331;BME280;21441;52.190;20.910;2023-04-26T02:33:35;99425.94;;;7.04;100.00
35331;BME280;21441;52.190;20.910;2023-04-26T02:36:03;99416.16;;;7.13;100.00
35331;BME280;21441;52.190;20.910;2023-04-26T02:38:32;99425.44;;;7.09;100.00
35331;BME280;21441;52.190;20.910;2023-04-26T02:41:00;99434.56;;;6.98;100.00
35331;BME280;21441;52.190;20.910;2023-04-26T02:43:28;99427.78;;;6.95;100.00
35331;BME280;21441;52.190;20.910;2023-04-26T02:45:55;99421.13;;;7.16;100.00
35331;BME280;21441;52.190;20.910;2023-04-26T02:48:23;99425.72;;;7.30;100.00
35331;BME280;21441;52.190;20.910;2023-04-26T02:50:52;99435.88;;;7.18;100.00
35331;BME280;21441;52.190;20.910;2023-04-26T02:53:19;99435.56;;;7.05;100.00
35331;BME280;21441;52.190;20.910;2023-04-26T02:55:46;99436.38;;;6.89;100.00
35331;BME280;21441;52.190;20.910;2023-04-26T02:58:13;99442.03;;;6.78;100.00
35331;BME280;21441;52.190;20.910;2023-04-26T03:00:44;99432.75;;;6.74;100.00
35331;BME280;21441;52.190;20.910;2023-04-26T03:03:11;99433.94;;;6.55;100.00
35331;BME280;21441;52.190;20.910;2023-04-26T03:05:39;99437.69;;;6.36;100.00
35331;BME280;21441;52.190;20.910;2023-04-26T03:08:07;99436.03;;;6.43;100.00
35331;BME280;21441;52.190;20.910;2023-04-26T03:10:35;99436.53;;;6.22;100.00
35331;BME280;21441;52.190;20.910;2023-04-26T03:13:03;99439.03;;;6.40;100.00
35331;BME280;21441;52.190;20.910;2023-04-26T03:15:30;99429.22;;;6.16;100.00
35331;BME280;21441;52.190;20.910;2023-04-26T03:17:57;99419.75;;;6.05;100.00
35331;BME280;21441;52.190;20.910;2023-04-26T03:20:24;99432.84;;;6.07;100.00
35331;BME280;21441;52.190;20.910;2023-04-26T03:22:51;99441.81;;;6.22;100.00
35331;BME280;21441;52.190;20.910;2023-04-26T03:25:20;99436.50;;;6.14;100.00
35331;BME280;21441;52.190;20.910;2023-04-26T03:27:47;99436.16;;;6.09;100.00
35331;BME280;21441;52.190;20.910;2023-04-26T03:30:15;99436.97;;;6.01;100.00
35331;BME280;21441;52.190;20.910;2023-04-26T03:32:42;99440.69;;;5.90;100.00
35331;BME280;21441;52.190;20.910;2023-04-26T03:35:09;99448.72;;;5.98;100.00
35331;BME280;21441;52.190;20.910;2023-04-26T03:37:36;99462.69;;;5.83;100.00
35331;BME280;21441;52.190;20.910;2023-04-26T03:40:06;99453.69;;;6.02;100.00
35331;BME280;21441;52.190;20.910;2023-04-26T03:42:35;99443.53;;;5.89;100.00
35331;BME280;21441;52.190;20.910;2023-04-26T03:45:04;99445.31;;;5.80;100.00
35331;BME280;21441;52.190;20.910;2023-04-26T03:47:31;99454.50;;;5.68;100.00
35331;BME280;21441;52.190;20.910;2023-04-26T03:49:58;99456.16;;;5.61;100.00
35331;BME280;21441;52.190;20.910;2023-04-26T03:52:26;99456.38;;;5.75;100.00
35331;BME280;21441;52.190;20.910;2023-04-26T03:54:53;99455.81;;;5.64;100.00
35331;BME280;21441;52.190;20.910;2023-04-26T03:57:20;99453.50;;;5.61;100.00
35331;BME280;21441;52.190;20.910;2023-04-26T03:59:49;99460.63;;;5.60;100.00
35331;BME280;21441;52.190;20.910;2023-04-26T04:02:16;99460.03;;;5.48;100.00
35331;BME280;21441;52.190;20.910;2023-04-26T04:04:43;99462.78;;;5.73;100.00
35331;BME280;21441;52.190;20.910;2023-04-26T04:07:10;99458.63;;;5.62;100.00
35331;BME280;21441;52.190;20.910;2023-04-26T04:09:38;99463.97;;;5.44;100.00
35331;BME280;21441;52.190;20.910;2023-04-26T04:12:05;99466.34;;;5.47;100.00
35331;BME280;21441;52.190;20.910;2023-04-26T04:14:32;99466.06;;;5.58;100.00
35331;BME280;21441;52.190;20.910;2023-04-26T04:17:01;99465.97;;;5.76;100.00
35331;BME280;21441;52.190;20.910;2023-04-26T04:19:28;99465.97;;;5.76;100.00
35331;BME280;21441;52.190;20.910;2023-04-26T04:21:56;99476.69;;;5.75;100.00
35331;BME280;21441;52.190;20.910;2023-04-26T04:24:23;99474.63;;;5.87;100.00
35331;BME280;21441;52.190;20.910;2023-04-26T04:26:50;99483.97;;;5.65;100.00
35331;BME280;21441;52.190;20.910;2023-04-26T04:29:17;99473.88;;;5.68;100.00
35331;BME280;21441;52.190;20.910;2023-04-26T04:31:44;99479.91;;;5.87;100.00
35331;BME280;21441;52.190;20.910;2023-04-26T04:34:13;99476.41;;;5.78;100.00
35331;BME280;21441;52.190;20.910;2023-04-26T04:36:41;99486.13;;;5.69;100.00
35331;BME280;21441;52.190;20.910;2023-04-26T04:39:08;99482.47;;;5.70;100.00
35331;BME280;21441;52.190;20.910;2023-04-26T04:41:40;99491.28;;;5.79;100.00
35331;BME280;21441;52.190;20.910;2023-04-26T04:44:13;99495.25;;;5.49;100.00
35331;BME280;21441;52.190;20.910;2023-04-26T04:46:41;99490.44;;;5.44;100.00
35331;BME280;21441;52.190;20.910;2023-04-26T04:49:10;99497.97;;;5.31;100.00
35331;BME280;21441;52.190;20.910;2023-04-26T04:51:39;99500.44;;;5.58;100.00
35331;BME280;21441;52.190;20.910;2023-04-26T04:54:10;99504.03;;;5.49;100.00
35331;BME280;21441;52.190;20.910;2023-04-26T04:56:38;99492.47;;;5.50;100.00
35331;BME280;21441;52.190;20.910;2023-04-26T04:59:05;99512.84;;;5.84;100.00
35331;BME280;21441;52.190;20.910;2023-04-26T05:01:33;99508.94;;;5.70;100.00
35331;BME280;21441;52.190;20.910;2023-04-26T05:04:00;99511.91;;;5.67;100.00
35331;BME280;21441;52.190;20.910;2023-04-26T05:06:28;99522.56;;;5.49;100.00
35331;BME280;21441;52.190;20.910;2023-04-26T05:08:58;99522.91;;;5.54;100.00
35331;BME280;21441;52.190;20.910;2023-04-26T05:11:26;99530.91;;;5.63;100.00
35331;BME280;21441;52.190;20.910;2023-04-26T05:13:53;99526.63;;;5.70;100.00
35331;BME280;21441;52.190;20.910;2023-04-26T05:16:20;99526.03;;;5.76;100.00
35331;BME280;21441;52.190;20.910;2023-04-26T05:18:48;99535.19;;;5.64;100.00
35331;BME280;21441;52.190;20.910;2023-04-26T05:21:15;99531.00;;;5.53;100.00
35331;BME280;21441;52.190;20.910;2023-04-26T05:23:42;99536.56;;;5.68;100.00
35331;BME280;21441;52.190;20.910;2023-04-26T05:26:13;99537.03;;;5.63;100.00
35331;BME280;21441;52.190;20.910;2023-04-26T05:28:40;99532.34;;;5.83;100.00
35331;BME280;21441;52.190;20.910;2023-04-26T05:31:08;99537.81;;;5.90;100.00
35331;BME280;21441;52.190;20.910;2023-04-26T05:33:36;99539.13;;;6.12;100.00
35331;BME280;21441;52.190;20.910;2023-04-26T05:36:03;99543.66;;;6.36;100.00
35331;BME280;21441;52.190;20.910;2023-04-26T05:38:32;99543.72;;;6.52;100.00
35331;BME280;21441;52.190;20.910;2023-04-26T05:40:59;99548.94;;;6.28;100.00
35331;BME280;21441;52.190;20.910;2023-04-26T05:43:27;99545.34;;;6.37;100.00
35331;BME280;21441;52.190;20.910;2023-04-26T05:45:55;99544.88;;;6.50;100.00
35331;BME280;21441;52.190;20.910;2023-04-26T05:48:23;99547.75;;;6.81;100.00
35331;BME280;21441;52.190;20.910;2023-04-26T05:50:51;99535.00;;;6.85;100.00
35331;BME280;21441;52.190;20.910;2023-04-26T05:53:18;99548.09;;;7.02;100.00
35331;BME280;21441;52.190;20.910;2023-04-26T05:55:46;99536.47;;;6.87;100.00
35331;BME280;21441;52.190;20.910;2023-04-26T05:58:13;99542.97;;;7.09;100.00
35331;BME280;21441;52.190;20.910;2023-04-26T06:00:41;99550.75;;;7.43;100.00
35331;BME280;21441;52.190;20.910;2023-04-26T06:03:09;99551.06;;;6.91;100.00
35331;BME280;21441;52.190;20.910;2023-04-26T06:05:36;99556.56;;;7.14;100.00
35331;BME280;21441;52.190;20.910;2023-04-26T06:08:04;99549.78;;;7.12;100.00
35331;BME280;21441;52.190;20.910;2023-04-26T06:10:31;99558.34;;;7.55;100.00
35331;BME280;21441;52.190;20.910;2023-04-26T06:12:59;99554.91;;;7.38;100.00
35331;BME280;21441;52.190;20.910;2023-04-26T06:15:26;99556.06;;;7.11;100.00
35331;BME280;21441;52.190;20.910;2023-04-26T06:17:55;99555.22;;;7.43;100.00
35331;BME280;21441;52.190;20.910;2023-04-26T06:20:22;99559.53;;;7.69;100.00
35331;BME280;21441;52.190;20.910;2023-04-26T06:22:49;99543.84;;;7.90;100.00
35331;BME280;21441;52.190;20.910;2023-04-26T06:25:16;99552.44;;;8.09;100.00
35331;BME280;21441;52.190;20.910;2023-04-26T06:27:43;99550.19;;;7.73;100.00
35331;BME280;21441;52.190;20.910;2023-04-26T06:30:10;99552.69;;;7.82;100.00
35331;BME280;21441;52.190;20.910;2023-04-26T06:32:39;99548.59;;;7.31;100.00
35331;BME280;21441;52.190;20.910;2023-04-26T06:35:08;99538.13;;;7.37;100.00
35331;BME280;21441;52.190;20.910;2023-04-26T06:37:36;99562.34;;;7.59;100.00
35331;BME280;21441;52.190;20.910;2023-04-26T06:40:04;99564.31;;;7.73;100.00
35331;BME280;21441;52.190;20.910;2023-04-26T06:42:32;99540.19;;;7.91;100.00
35331;BME280;21441;52.190;20.910;2023-04-26T06:44:59;99565.63;;;8.25;96.73
35331;BME280;21441;52.190;20.910;2023-04-26T06:47:26;99565.22;;;7.97;92.70
35331;BME280;21441;52.190;20.910;2023-04-26T06:49:53;99562.25;;;8.00;91.74
35331;BME280;21441;52.190;20.910;2023-04-26T06:52:22;99561.97;;;7.78;89.63
35331;BME280;21441;52.190;20.910;2023-04-26T06:54:50;99565.38;;;8.03;89.68
35331;BME280;21441;52.190;20.910;2023-04-26T06:57:18;99554.81;;;7.95;84.87
35331;BME280;21441;52.190;20.910;2023-04-26T06:59:45;99559.13;;;8.44;83.00
35331;BME280;21441;52.190;20.910;2023-04-26T07:02:14;99553.38;;;8.86;75.74
35331;BME280;21441;52.190;20.910;2023-04-26T07:04:41;99564.56;;;9.05;72.69
35331;BME280;21441;52.190;20.910;2023-04-26T07:07:08;99563.56;;;9.29;69.71
35331;BME280;21441;52.190;20.910;2023-04-26T07:09:37;99556.16;;;9.54;66.79
35331;BME280;21441;52.190;20.910;2023-04-26T07:12:04;99560.06;;;9.66;64.87
35331;BME280;21441;52.190;20.910;2023-04-26T07:14:31;99572.66;;;9.12;62.92
35331;BME280;21441;52.190;20.910;2023-04-26T07:17:00;99565.09;;;9.00;63.75
35331;BME280;21441;52.190;20.910;2023-04-26T07:19:27;99572.84;;;9.33;65.58
35331;BME280;21441;52.190;20.910;2023-04-26T07:21:54;99580.16;;;9.31;63.53
35331;BME280;21441;52.190;20.910;2023-04-26T07:24:21;99572.28;;;9.38;64.05
35331;BME280;21441;52.190;20.910;2023-04-26T07:26:50;99565.03;;;9.08;61.46
35331;BME280;21441;52.190;20.910;2023-04-26T07:29:17;99566.97;;;9.53;62.89
35331;BME280;21441;52.190;20.910;2023-04-26T07:31:44;99563.63;;;9.74;63.69
35331;BME280;21441;52.190;20.910;2023-04-26T07:34:12;99568.59;;;9.62;59.49
35331;BME280;21441;52.190;20.910;2023-04-26T07:36:39;99586.19;;;9.02;61.43
35331;BME280;21441;52.190;20.910;2023-04-26T07:39:07;99571.53;;;9.29;59.94
35331;BME280;21441;52.190;20.910;2023-04-26T07:41:35;99573.00;;;9.69;60.08
35331;BME280;21441;52.190;20.910;2023-04-26T07:44:04;99575.13;;;9.89;58.49
35331;BME280;21441;52.190;20.910;2023-04-26T07:46:32;99575.50;;;9.33;59.00
35331;BME280;21441;52.190;20.910;2023-04-26T07:48:59;99582.88;;;9.23;61.99
35331;BME280;21441;52.190;20.910;2023-04-26T07:51:26;99582.63;;;9.56;60.68
35331;BME280;21441;52.190;20.910;2023-04-26T07:53:53;99590.31;;;8.50;62.01
35331;BME280;21441;52.190;20.910;2023-04-26T07:56:22;99594.53;;;8.99;63.21
35331;BME280;21441;52.190;20.910;2023-04-26T07:58:49;99592.78;;;9.52;62.12
35331;BME280;21441;52.190;20.910;2023-04-26T08:01:18;99592.22;;;10.09;60.34
35331;BME280;21441;52.190;20.910;2023-04-26T08:03:45;99595.06;;;9.93;60.08
35331;BME280;21441;52.190;20.910;2023-04-26T08:06:13;99592.34;;;10.31;57.97
35331;BME280;21441;52.190;20.910;2023-04-26T08:08:41;99583.03;;;10.42;57.59
35331;BME280;21441;52.190;20.910;2023-04-26T08:11:10;99594.97;;;9.86;56.87
35331;BME280;21441;52.190;20.910;2023-04-26T08:13:37;99600.44;;;9.70;56.36
35331;BME280;21441;52.190;20.910;2023-04-26T08:16:05;99598.56;;;9.94;57.68
35331;BME280;21441;52.190;20.910;2023-04-26T08:18:33;99602.47;;;8.76;57.38
35331;BME280;21441;52.190;20.910;2023-04-26T08:21:01;99607.78;;;7.89;61.17
35331;BME280;21441;52.190;20.910;2023-04-26T08:23:31;99604.31;;;7.63;64.18
35331;BME280;21441;52.190;20.910;2023-04-26T08:26:00;99610.63;;;7.62;66.48
35331;BME280;21441;52.190;20.910;2023-04-26T08:28:27;99582.44;;;7.45;69.80
35331;BME280;21441;52.190;20.910;2023-04-26T08:30:55;99607.66;;;7.41;71.78
35331;BME280;21441;52.190;20.910;2023-04-26T08:33:22;99601.59;;;7.88;70.63
35331;BME280;21441;52.190;20.910;2023-04-26T08:35:51;99602.03;;;8.64;65.66
35331;BME280;21441;52.190;20.910;2023-04-26T08:38:18;99596.50;;;9.05;59.92
35331;BME280;21441;52.190;20.910;2023-04-26T08:40:47;99595.88;;;9.64;58.72
35331;BME280;21441;52.190;20.910;2023-04-26T08:43:14;99598.13;;;9.52;57.25
35331;BME280;21441;52.190;20.910;2023-04-26T08:45:44;99606.81;;;8.45;59.89
35331;BME280;21441;52.190;20.910;2023-04-26T08:48:12;99599.97;;;8.43;61.78
35331;BME280;21441;52.190;20.910;2023-04-26T08:50:42;99609.16;;;8.24;63.08
35331;BME280;21441;52.190;20.910;2023-04-26T08:53:13;99609.63;;;8.75;61.11
35331;BME280;21441;52.190;20.910;2023-04-26T08:55:46;99583.94;;;8.20;59.88
35331;BME280;21441;52.190;20.910;2023-04-26T08:58:14;99608.28;;;8.32;60.61
35331;BME280;21441;52.190;20.910;2023-04-26T09:00:42;99600.28;;;7.92;60.92
35331;BME280;21441;52.190;20.910;2023-04-26T09:03:09;99620.63;;;8.16;61.15
35331;BME280;21441;52.190;20.910;2023-04-26T09:05:38;99617.13;;;9.03;58.91
35331;BME280;21441;52.190;20.910;2023-04-26T09:08:05;99611.78;;;9.26;55.06
35331;BME280;21441;52.190;20.910;2023-04-26T09:10:35;99616.41;;;9.32;53.51
35331;BME280;21441;52.190;20.910;2023-04-26T09:13:02;99611.91;;;9.33;53.62
35331;BME280;21441;52.190;20.910;2023-04-26T09:15:29;99629.41;;;8.81;51.96
35331;BME280;21441;52.190;20.910;2023-04-26T09:18:15;99624.97;;;8.17;52.48
35331;BME280;21441;52.190;20.910;2023-04-26T09:20:43;99632.88;;;8.50;53.23
35331;BME280;21441;52.190;20.910;2023-04-26T09:23:10;99622.06;;;8.83;53.06
35331;BME280;21441;52.190;20.910;2023-04-26T09:25:39;99640.59;;;8.99;52.68
35331;BME280;21441;52.190;20.910;2023-04-26T09:28:18;99637.47;;;9.19;52.84
35331;BME280;21441;52.190;20.910;2023-04-26T09:30:46;99639.84;;;9.14;52.54
35331;BME280;21441;52.190;20.910;2023-04-26T09:33:13;99642.97;;;9.40;51.88
35331;BME280;21441;52.190;20.910;2023-04-26T09:35:42;99627.75;;;9.26;50.30
35331;BME280;21441;52.190;20.910;2023-04-26T09:38:11;99627.06;;;9.09;49.40
35331;BME280;21441;52.190;20.910;2023-04-26T09:40:41;99633.16;;;9.64;47.21
35331;BME280;21441;52.190;20.910;2023-04-26T09:43:09;99627.94;;;9.70;44.57
35331;BME280;21441;52.190;20.910;2023-04-26T09:45:45;99633.78;;;9.66;45.61
35331;BME280;21441;52.190;20.910;2023-04-26T09:48:15;99623.91;;;9.89;46.13
35331;BME280;21441;52.190;20.910;2023-04-26T09:50:44;99627.81;;;8.95;47.13
35331;BME280;21441;52.190;20.910;2023-04-26T09:53:24;99635.00;;;9.78;47.13
35331;BME280;21441;52.190;20.910;2023-04-26T09:55:54;99636.53;;;10.10;45.66
35331;BME280;21441;52.190;20.910;2023-04-26T09:58:21;99615.78;;;10.50;42.72
35331;BME280;21441;52.190;20.910;2023-04-26T10:00:50;99631.50;;;10.45;42.09
35331;BME280;21441;52.190;20.910;2023-04-26T10:03:17;99626.19;;;9.78;42.96
35331;BME280;21441;52.190;20.910;2023-04-26T10:05:45;99639.84;;;9.37;43.48
35331;BME280;21441;52.190;20.910;2023-04-26T10:08:13;99635.28;;;9.45;44.96
35331;BME280;21441;52.190;20.910;2023-04-26T10:10:41;99617.66;;;9.44;44.59
35331;BME280;21441;52.190;20.910;2023-04-26T10:13:12;99640.97;;;9.80;44.53
35331;BME280;21441;52.190;20.910;2023-04-26T10:15:41;99629.56;;;9.34;45.31
35331;BME280;21441;52.190;20.910;2023-04-26T10:18:08;99624.31;;;9.63;45.65
35331;BME280;21441;52.190;20.910;2023-04-26T10:20:40;99637.72;;;9.55;45.73
35331;BME280;21441;52.190;20.910;2023-04-26T10:23:12;99627.38;;;9.75;43.39
35331;BME280;21441;52.190;20.910;2023-04-26T10:25:45;99620.06;;;10.07;39.77
35331;BME280;21441;52.190;20.910;2023-04-26T10:28:13;99622.56;;;9.33;39.92
35331;BME280;21441;52.190;20.910;2023-04-26T10:30:54;99618.44;;;9.68;41.00
35331;BME280;21441;52.190;20.910;2023-04-26T10:33:21;99620.81;;;10.16;41.43
35331;BME280;21441;52.190;20.910;2023-04-26T10:36:10;99610.13;;;10.01;42.33
35331;BME280;21441;52.190;20.910;2023-04-26T10:38:39;99634.69;;;9.35;46.24
35331;BME280;21441;52.190;20.910;2023-04-26T10:41:29;99628.81;;;9.63;45.49
35331;BME280;21441;52.190;20.910;2023-04-26T10:43:59;99654.66;;;9.08;46.96
35331;BME280;21441;52.190;20.910;2023-04-26T10:46:38;99655.47;;;8.46;48.62
35331;BME280;21441;52.190;20.910;2023-04-26T10:49:15;99663.53;;;9.00;47.86
35331;BME280;21441;52.190;20.910;2023-04-26T10:52:08;99656.38;;;9.70;47.27
35331;BME280;21441;52.190;20.910;2023-04-26T10:57:23;99660.00;;;9.77;45.53
35331;BME280;21441;52.190;20.910;2023-04-26T11:00:29;99655.03;;;10.71;44.96
35331;BME280;21441;52.190;20.910;2023-04-26T11:03:05;99650.28;;;10.88;44.43
35331;BME280;21441;52.190;20.910;2023-04-26T11:05:51;99647.47;;;10.75;43.87
35331;BME280;21441;52.190;20.910;2023-04-26T11:08:26;99668.59;;;10.17;44.88
35331;BME280;21441;52.190;20.910;2023-04-26T11:11:06;99677.00;;;9.53;47.13
35331;BME280;21441;52.190;20.910;2023-04-26T11:13:36;99676.53;;;9.87;46.78
35331;BME280;21441;52.190;20.910;2023-04-26T11:16:05;99677.75;;;10.38;45.93
35331;BME280;21441;52.190;20.910;2023-04-26T11:18:34;99687.31;;;9.94;45.38
35331;BME280;21441;52.190;20.910;2023-04-26T11:21:03;99678.75;;;9.99;45.47
35331;BME280;21441;52.190;20.910;2023-04-26T11:23:31;99676.28;;;10.50;44.93
35331;BME280;21441;52.190;20.910;2023-04-26T11:25:59;99679.72;;;10.95;44.30
35331;BME280;21441;52.190;20.910;2023-04-26T11:28:28;99673.41;;;10.81;43.66
35331;BME280;21441;52.190;20.910;2023-04-26T11:30:56;99679.56;;;10.67;43.89
35331;BME280;21441;52.190;20.910;2023-04-26T11:33:25;99678.06;;;11.09;43.86
35331;BME280;21441;52.190;20.910;2023-04-26T11:35:53;99688.75;;;10.79;44.53
35331;BME280;21441;52.190;20.910;2023-04-26T11:38:22;99683.50;;;10.26;45.46
35331;BME280;21441;52.190;20.910;2023-04-26T11:40:53;99686.88;;;10.20;46.43
35331;BME280;21441;52.190;20.910;2023-04-26T11:43:21;99684.16;;;9.76;46.30
35331;BME280;21441;52.190;20.910;2023-04-26T11:45:48;99689.66;;;8.49;47.35
35331;BME280;21441;52.190;20.910;2023-04-26T11:48:15;99669.41;;;8.56;47.71
35331;BME280;21441;52.190;20.910;2023-04-26T11:50:44;99689.69;;;8.88;47.70
35331;BME280;21441;52.190;20.910;2023-04-26T11:53:12;99704.25;;;8.70;47.77
35331;BME280;21441;52.190;20.910;2023-04-26T11:55:39;99707.28;;;8.34;48.48
35331;BME280;21441;52.190;20.910;2023-04-26T11:58:11;99700.81;;;8.44;47.96
35331;BME280;21441;52.190;20.910;2023-04-26T12:00:54;99675.91;;;8.21;48.69
35331;BME280;21441;52.190;20.910;2023-04-26T12:03:22;99698.13;;;9.00;48.21
35331;BME280;21441;52.190;20.910;2023-04-26T12:05:56;99694.03;;;8.42;48.28
35331;BME280;21441;52.190;20.910;2023-04-26T12:08:24;99710.63;;;8.44;48.58
35331;BME280;21441;52.190;20.910;2023-04-26T12:10:51;99703.66;;;8.82;48.03
35331;BME280;21441;52.190;20.910;2023-04-26T12:13:19;99698.94;;;9.32;46.21
35331;BME280;21441;52.190;20.910;2023-04-26T12:15:46;99710.47;;;9.47;46.43
35331;BME280;21441;52.190;20.910;2023-04-26T12:18:16;99710.19;;;10.03;46.88
35331;BME280;21441;52.190;20.910;2023-04-26T12:20:43;99707.03;;;10.08;46.58
35331;BME280;21441;52.190;20.910;2023-04-26T12:23:14;99677.47;;;9.34;46.97
35331;BME280;21441;52.190;20.910;2023-04-26T12:25:51;99707.91;;;9.00;47.91
35331;BME280;21441;52.190;20.910;2023-04-26T12:28:20;99711.38;;;9.08;46.85
35331;BME280;21441;52.190;20.910;2023-04-26T12:30:47;99716.06;;;9.99;45.47
35331;BME280;21441;52.190;20.910;2023-04-26T12:33:15;99711.19;;;9.64;44.65
35331;BME280;21441;52.190;20.910;2023-04-26T12:35:45;99707.34;;;9.67;45.21
35331;BME280;21441;52.190;20.910;2023-04-26T12:38:14;99716.38;;;10.57;44.51
35331;BME280;21441;52.190;20.910;2023-04-26T12:40:41;99713.03;;;10.84;42.46
35331;BME280;21441;52.190;20.910;2023-04-26T12:43:09;99701.00;;;10.73;40.26
35331;BME280;21441;52.190;20.910;2023-04-26T12:45:36;99717.19;;;9.66;42.66
35331;BME280;21441;52.190;20.910;2023-04-26T12:48:03;99722.72;;;9.02;42.93
35331;BME280;21441;52.190;20.910;2023-04-26T12:50:30;99727.38;;;8.53;45.64
35331;BME280;21441;52.190;20.910;2023-04-26T12:52:58;99724.53;;;8.62;46.52
35331;BME280;21441;52.190;20.910;2023-04-26T12:55:26;99735.44;;;8.84;47.36
35331;BME280;21441;52.190;20.910;2023-04-26T12:57:54;99734.19;;;8.55;48.36
35331;BME280;21441;52.190;20.910;2023-04-26T13:00:21;99741.50;;;8.53;49.23
35331;BME280;21441;52.190;20.910;2023-04-26T13:02:48;99743.34;;;9.00;48.97
35331;BME280;21441;52.190;20.910;2023-04-26T13:05:15;99757.13;;;9.04;47.48